Time;durP1;ratioP1;P1;durP2;ratioP2;P2;SDS_P1;SDS_P2;PMS_P1;PMS_P2;Temp;Humidity;BMP_temperature;BMP_pressure;BME280_temperature;BME280_humidity;BME280_pressure;Samples;Min_cycle;Max_cycle;Signal;HPM_P1;HPM_P2
2021/07/14 00:02:15;;;;;;;7.38;4.45;;;;;;;;;;5034913;28;20041;-67
2021/07/14 00:04:41;;;;;;;5.65;4.57;;;;;;;;;;5035185;28;20037;-64
2021/07/14 00:07:08;;;;;;;5.35;4.25;;;;;;;;;;5035567;28;20104;-66
2021/07/14 00:09:34;;;;;;;6.25;4.10;;;;;;;;;;5035140;28;20033;-68
2021/07/14 00:12:03;;;;;;;5.10;4.38;;;;;;;;;;5034813;28;20032;-67
2021/07/14 00:22:23;;;;;;;6.35;4.38;;;;;;;;;;5035181;28;20541;-68
2021/07/14 00:24:49;;;;;;;5.95;4.15;;;;;;;;;;5034194;28;20102;-67
2021/07/14 00:27:15;;;;;;;7.07;5.03;;;;;;;;;;5034751;28;20030;-67
2021/07/14 00:29:51;;;;;;;5.95;4.40;;;;;;;;;;5034741;28;20052;-67
2021/07/14 00:32:18;;;;;;;9.30;4.93;;;;;;;;;;5034626;28;20038;-67
2021/07/14 00:34:44;;;;;;;8.32;5.35;;;;;;;;;;5034266;28;20091;-67
2021/07/14 00:37:10;;;;;;;5.85;4.93;;;;;;;;;;5033577;28;20120;-67
2021/07/14 00:39:36;;;;;;;6.45;5.00;;;;;;;;;;5030839;28;20037;-68
2021/07/14 00:42:02;;;;;;;5.57;4.70;;;;;;;;;;5024125;28;20021;-68
2021/07/14 00:44:28;;;;;;;8.30;5.07;;;;;;;;;;5034458;28;20030;-68
2021/07/14 00:46:55;;;;;;;6.97;4.70;;;;;;;;;;5034618;28;20030;-67
2021/07/14 00:49:22;;;;;;;8.38;5.18;;;;;;;;;;5046789;28;20026;-67
2021/07/14 00:51:48;;;;;;;5.88;4.78;;;;;;;;;;5034945;28;20062;-68
2021/07/14 00:54:15;;;;;;;8.27;5.30;;;;;;;;;;5034760;28;20104;-67
2021/07/14 00:56:41;;;;;;;7.57;5.15;;;;;;;;;;5034151;28;20040;-67
2021/07/14 00:59:07;;;;;;;6.80;5.15;;;;;;;;;;5016685;28;20017;-68
2021/07/14 01:01:33;;;;;;;6.15;5.10;;;;;;;;;;5034181;28;20026;-67
2021/07/14 01:04:01;;;;;;;6.68;5.25;;;;;;;;;;5034011;28;20463;-68
2021/07/14 01:06:48;;;;;;;6.88;5.03;;;;;;;;;;5033966;28;20553;-68
2021/07/14 01:09:14;;;;;;;5.25;4.70;;;;;;;;;;5023864;28;20543;-68
2021/07/14 01:11:41;;;;;;;7.60;5.35;;;;;;;;;;5043929;28;20381;-67
2021/07/14 01:14:21;;;;;;;7.57;5.82;;;;;;;;;;5036511;28;20025;-67
2021/07/14 01:16:50;;;;;;;6.53;4.40;;;;;;;;;;5033967;28;20053;-66
2021/07/14 01:19:29;;;;;;;9.10;4.88;;;;;;;;;;5035280;28;20480;-66
2021/07/14 01:21:57;;;;;;;7.85;4.75;;;;;;;;;;5024563;28;20048;-67
2021/07/14 01:24:45;;;;;;;6.30;5.18;;;;;;;;;;5033893;28;20026;-67
2021/07/14 01:27:16;;;;;;;7.28;5.00;;;;;;;;;;5033947;28;20057;-67
2021/07/14 01:29:44;;;;;;;6.70;4.60;;;;;;;;;;5034105;28;20122;-67
2021/07/14 01:32:11;;;;;;;6.18;4.88;;;;;;;;;;5034013;28;20383;-67
2021/07/14 01:34:38;;;;;;;6.18;5.15;;;;;;;;;;5034180;28;20117;-67
2021/07/14 01:37:06;;;;;;;6.40;4.93;;;;;;;;;;5031595;28;20496;-67
2021/07/14 01:39:33;;;;;;;8.10;5.35;;;;;;;;;;5033591;28;20079;-67
2021/07/14 01:42:00;;;;;;;5.93;4.60;;;;;;;;;;5033649;28;20025;-67
2021/07/14 01:44:27;;;;;;;6.32;5.20;;;;;;;;;;5033508;28;20061;-67
2021/07/14 01:46:57;;;;;;;6.40;4.75;;;;;;;;;;5033298;28;20029;-66
2021/07/14 01:49:24;;;;;;;6.00;4.88;;;;;;;;;;5033699;28;20033;-67
2021/07/14 01:51:56;;;;;;;6.13;4.50;;;;;;;;;;5033749;28;20075;-66
2021/07/14 01:54:24;;;;;;;8.07;4.80;;;;;;;;;;5032843;28;20041;-66
2021/07/14 01:56:51;;;;;;;7.45;4.43;;;;;;;;;;5033015;28;20514;-67
2021/07/14 01:59:18;;;;;;;5.40;4.53;;;;;;;;;;5033172;28;20431;-67
2021/07/14 02:01:45;;;;;;;7.45;4.90;;;;;;;;;;5033303;28;20443;-66
2021/07/14 02:04:30;;;;;;;7.10;4.82;;;;;;;;;;5015702;28;20109;-66
2021/07/14 02:07:02;;;;;;;6.07;4.90;;;;;;;;;;5033512;28;20029;-66
2021/07/14 02:09:28;;;;;;;7.65;4.93;;;;;;;;;;5033322;28;20480;-67
2021/07/14 02:11:56;;;;;;;5.88;4.97;;;;;;;;;;5032578;28;20029;-65
2021/07/14 02:14:24;;;;;;;5.85;4.97;;;;;;;;;;5032372;28;20025;-66
2021/07/14 02:16:51;;;;;;;7.50;4.30;;;;;;;;;;5032631;28;20418;-66
2021/07/14 02:19:19;;;;;;;9.23;4.65;;;;;;;;;;5034349;28;20510;-66
2021/07/14 02:21:45;;;;;;;6.82;4.70;;;;;;;;;;5034496;28;20028;-65
2021/07/14 02:24:12;;;;;;;6.55;4.03;;;;;;;;;;5021230;28;20100;-65
2021/07/14 02:26:39;;;;;;;5.45;4.32;;;;;;;;;;5032191;28;20022;-66
2021/07/14 02:29:06;;;;;;;6.55;4.28;;;;;;;;;;5031894;28;20014;-66
2021/07/14 02:31:32;;;;;;;5.72;4.55;;;;;;;;;;5032732;28;20048;-66
2021/07/14 02:33:59;;;;;;;7.45;4.45;;;;;;;;;;5032234;28;20373;-66
2021/07/14 02:36:26;;;;;;;6.95;4.70;;;;;;;;;;5029733;28;20025;-67
2021/07/14 02:38:54;;;;;;;6.25;4.45;;;;;;;;;;5032105;28;20032;-66
2021/07/14 02:41:29;;;;;;;5.22;4.65;;;;;;;;;;5032258;28;20087;-66
2021/07/14 02:43:58;;;;;;;7.70;4.53;;;;;;;;;;5032360;28;20022;-66
2021/07/14 02:46:26;;;;;;;5.82;4.30;;;;;;;;;;5014777;28;20057;-66
2021/07/14 02:48:54;;;;;;;10.18;5.15;;;;;;;;;;5032931;28;20021;-66
2021/07/14 02:51:21;;;;;;;6.35;4.53;;;;;;;;;;5033256;28;20041;-66
2021/07/14 02:53:50;;;;;;;6.90;4.22;;;;;;;;;;5032380;28;20028;-66
2021/07/14 02:56:19;;;;;;;7.90;4.90;;;;;;;;;;5031880;28;20072;-66
2021/07/14 02:58:49;;;;;;;8.65;5.28;;;;;;;;;;5032560;28;20040;-66
2021/07/14 03:01:16;;;;;;;6.88;5.20;;;;;;;;;;5032924;28;20033;-66
2021/07/14 03:03:43;;;;;;;7.32;4.68;;;;;;;;;;5032444;28;20104;-66
2021/07/14 03:06:09;;;;;;;7.53;5.38;;;;;;;;;;5032166;28;20029;-66
2021/07/14 03:08:36;;;;;;;5.50;4.43;;;;;;;;;;5032277;28;20033;-67
2021/07/14 03:11:02;;;;;;;5.63;4.60;;;;;;;;;;5031757;28;20522;-66
2021/07/14 03:13:36;;;;;;;6.47;4.70;;;;;;;;;;5031426;28;20053;-66
2021/07/14 03:16:02;;;;;;;6.78;4.65;;;;;;;;;;5032317;28;20104;-67
2021/07/14 03:18:30;;;;;;;6.78;5.20;;;;;;;;;;5032195;28;20514;-66
2021/07/14 03:20:57;;;;;;;6.95;4.85;;;;;;;;;;5035314;28;20495;-66
2021/07/14 03:23:24;;;;;;;6.00;4.35;;;;;;;;;;5031789;28;20482;-67
2021/07/14 03:25:51;;;;;;;5.82;4.70;;;;;;;;;;5030998;28;20021;-66
2021/07/14 03:28:17;;;;;;;5.85;4.28;;;;;;;;;;5031850;28;20026;-66
2021/07/14 03:30:44;;;;;;;6.88;4.68;;;;;;;;;;5031855;28;20033;-65
2021/07/14 03:33:10;;;;;;;6.82;4.80;;;;;;;;;;5031998;28;20075;-66
2021/07/14 03:35:36;;;;;;;8.60;5.22;;;;;;;;;;5025286;28;20018;-65
2021/07/14 03:38:03;;;;;;;6.28;4.68;;;;;;;;;;5028296;28;20036;-66
2021/07/14 03:40:31;;;;;;;7.40;4.53;;;;;;;;;;5031691;28;20464;-66
2021/07/14 03:42:58;;;;;;;8.32;4.93;;;;;;;;;;5031566;28;20080;-66
2021/07/14 03:45:25;;;;;;;6.85;4.75;;;;;;;;;;5031886;28;20506;-65
2021/07/14 03:47:51;;;;;;;6.68;4.63;;;;;;;;;;5031166;28;20061;-66
2021/07/14 03:50:17;;;;;;;5.82;4.65;;;;;;;;;;5034154;28;20057;-66
2021/07/14 03:52:45;;;;;;;10.35;4.93;;;;;;;;;;5014604;28;20560;-66
2021/07/14 03:55:11;;;;;;;6.85;4.78;;;;;;;;;;5031105;28;20017;-67
2021/07/14 03:57:38;;;;;;;7.35;4.70;;;;;;;;;;5031576;28;20096;-66
2021/07/14 04:00:05;;;;;;;6.72;4.35;;;;;;;;;;5031458;28;20066;-67
2021/07/14 04:02:31;;;;;;;8.43;5.20;;;;;;;;;;5031342;28;20060;-67
2021/07/14 04:04:57;;;;;;;7.45;4.72;;;;;;;;;;5031486;28;20061;-67
2021/07/14 04:07:25;;;;;;;7.38;4.40;;;;;;;;;;5031981;28;20480;-66
2021/07/14 04:09:51;;;;;;;8.88;4.07;;;;;;;;;;5032588;28;20361;-66
2021/07/14 04:12:18;;;;;;;8.40;4.70;;;;;;;;;;5032230;28;20037;-67
2021/07/14 04:14:44;;;;;;;8.38;4.60;;;;;;;;;;5031552;28;20026;-67
2021/07/14 04:17:11;;;;;;;7.25;4.30;;;;;;;;;;5031920;28;20025;-66
2021/07/14 04:19:37;;;;;;;5.70;4.55;;;;;;;;;;5039890;28;20036;-68
2021/07/14 04:22:04;;;;;;;6.25;4.55;;;;;;;;;;5042315;28;20033;-67
2021/07/14 04:24:31;;;;;;;7.15;4.38;;;;;;;;;;5043533;28;20036;-67
2021/07/14 04:26:57;;;;;;;7.85;4.53;;;;;;;;;;5031289;28;20369;-66
2021/07/14 04:29:23;;;;;;;6.10;4.63;;;;;;;;;;5031049;28;20064;-67
2021/07/14 04:31:49;;;;;;;8.48;4.53;;;;;;;;;;5031507;28;20021;-66
2021/07/14 04:34:15;;;;;;;5.75;4.63;;;;;;;;;;5030802;28;20025;-66
2021/07/14 04:36:41;;;;;;;9.00;5.32;;;;;;;;;;5030345;28;20013;-65
2021/07/14 04:39:08;;;;;;;5.97;4.43;;;;;;;;;;5035115;28;20017;-66
2021/07/14 04:41:34;;;;;;;7.53;4.55;;;;;;;;;;5035361;28;20021;-66
2021/07/14 04:44:04;;;;;;;7.85;4.85;;;;;;;;;;5033968;28;20025;-66
2021/07/14 04:46:31;;;;;;;7.20;4.57;;;;;;;;;;5034761;28;20560;-67
2021/07/14 04:48:57;;;;;;;6.45;4.70;;;;;;;;;;5032962;28;20032;-67
2021/07/14 04:51:23;;;;;;;5.85;4.70;;;;;;;;;;5032698;28;20037;-67
2021/07/14 04:53:50;;;;;;;5.03;4.53;;;;;;;;;;5033661;28;20101;-67
2021/07/14 04:56:16;;;;;;;5.38;4.10;;;;;;;;;;5035002;28;20033;-66
2021/07/14 04:58:43;;;;;;;7.68;4.28;;;;;;;;;;5034683;28;20028;-66
2021/07/14 05:01:09;;;;;;;6.35;3.95;;;;;;;;;;5034406;28;20491;-67
2021/07/14 05:03:35;;;;;;;5.38;4.35;;;;;;;;;;5034756;28;20029;-66
2021/07/14 05:06:01;;;;;;;6.03;4.30;;;;;;;;;;5034539;28;20036;-66
2021/07/14 05:08:28;;;;;;;8.60;4.47;;;;;;;;;;5034854;28;20033;-66
2021/07/14 05:10:54;;;;;;;7.32;4.57;;;;;;;;;;5016962;28;20033;-66
2021/07/14 05:13:20;;;;;;;6.25;4.35;;;;;;;;;;5034208;28;20036;-67
2021/07/14 05:15:47;;;;;;;6.65;4.28;;;;;;;;;;5034262;28;20041;-67
2021/07/14 05:18:13;;;;;;;7.53;4.47;;;;;;;;;;5034464;28;20486;-66
2021/07/14 05:20:40;;;;;;;8.73;4.50;;;;;;;;;;5034379;28;20037;-66
2021/07/14 05:23:07;;;;;;;5.68;4.32;;;;;;;;;;5034030;28;20045;-67
2021/07/14 05:25:33;;;;;;;5.90;4.50;;;;;;;;;;5033716;28;20025;-66
2021/07/14 05:27:59;;;;;;;6.07;4.28;;;;;;;;;;5033661;28;20033;-66
2021/07/14 05:30:25;;;;;;;4.53;3.95;;;;;;;;;;5033930;28;20057;-67
2021/07/14 05:32:51;;;;;;;5.68;4.68;;;;;;;;;;5033970;28;20115;-66
2021/07/14 05:35:17;;;;;;;7.13;4.30;;;;;;;;;;5030244;28;20033;-66
2021/07/14 05:37:43;;;;;;;6.72;4.60;;;;;;;;;;5029096;28;20042;-67
2021/07/14 05:40:10;;;;;;;5.60;4.18;;;;;;;;;;5035547;28;20029;-66
2021/07/14 05:42:36;;;;;;;9.95;5.05;;;;;;;;;;5016167;28;20369;-66
2021/07/14 05:45:02;;;;;;;8.30;4.25;;;;;;;;;;5033592;28;20364;-66
2021/07/14 05:47:28;;;;;;;8.07;4.60;;;;;;;;;;5033369;28;20040;-67
2021/07/14 05:49:54;;;;;;;7.93;4.07;;;;;;;;;;5033053;28;20033;-66
2021/07/14 05:52:20;;;;;;;5.13;3.80;;;;;;;;;;5033869;28;20083;-67
2021/07/14 05:54:46;;;;;;;7.53;4.35;;;;;;;;;;5032291;28;20022;-67
2021/07/14 05:57:12;;;;;;;7.28;4.63;;;;;;;;;;5032388;28;20123;-67
2021/07/14 05:59:38;;;;;;;6.60;4.22;;;;;;;;;;5033105;28;20021;-66
2021/07/14 06:02:05;;;;;;;6.63;3.85;;;;;;;;;;5033326;28;20033;-67
2021/07/14 06:04:31;;;;;;;5.68;3.95;;;;;;;;;;5033763;28;20056;-66
2021/07/14 06:06:59;;;;;;;8.48;5.28;;;;;;;;;;5033656;28;20468;-66
2021/07/14 06:09:25;;;;;;;6.43;4.32;;;;;;;;;;5034764;28;20030;-67
2021/07/14 06:11:51;;;;;;;7.50;4.85;;;;;;;;;;5033566;28;20025;-66
2021/07/14 06:14:18;;;;;;;8.52;4.35;;;;;;;;;;5033086;28;20037;-66
2021/07/14 06:16:44;;;;;;;6.72;3.97;;;;;;;;;;5033021;28;20017;-68
2021/07/14 06:19:10;;;;;;;6.15;4.13;;;;;;;;;;5033119;28;20018;-68
2021/07/14 06:21:36;;;;;;;6.93;4.07;;;;;;;;;;5033264;28;20022;-67
2021/07/14 06:24:02;;;;;;;8.02;4.70;;;;;;;;;;5032133;28;20025;-67
2021/07/14 06:26:28;;;;;;;6.55;4.47;;;;;;;;;;5033189;28;20021;-66
2021/07/14 06:28:54;;;;;;;6.53;4.53;;;;;;;;;;5032670;28;20025;-67
2021/07/14 06:31:20;;;;;;;6.78;4.50;;;;;;;;;;5033157;28;20025;-67
2021/07/14 06:33:47;;;;;;;8.50;5.07;;;;;;;;;;5033074;28;20028;-67
2021/07/14 06:36:13;;;;;;;6.22;4.43;;;;;;;;;;5021778;28;20045;-66
2021/07/14 06:38:39;;;;;;;8.07;6.00;;;;;;;;;;5013057;28;20046;-67
2021/07/14 06:41:05;;;;;;;7.22;5.03;;;;;;;;;;5013212;28;20022;-67
2021/07/14 06:43:41;;;;;;;7.75;5.05;;;;;;;;;;5013076;28;20117;-66
2021/07/14 06:46:08;;;;;;;7.60;5.00;;;;;;;;;;5013252;28;20045;-67
2021/07/14 06:48:34;;;;;;;7.20;5.25;;;;;;;;;;5013121;28;20021;-67
2021/07/14 06:51:00;;;;;;;6.45;5.15;;;;;;;;;;5016788;28;20108;-67
2021/07/14 06:53:26;;;;;;;7.40;5.60;;;;;;;;;;5022578;28;20284;-69
2021/07/14 06:55:52;;;;;;;10.40;5.38;;;;;;;;;;5004965;28;20060;-68
2021/07/14 06:58:19;;;;;;;7.68;5.28;;;;;;;;;;5017025;28;20068;-69
2021/07/14 07:00:46;;;;;;;9.35;5.22;;;;;;;;;;5020963;28;20025;-65
2021/07/14 07:03:12;;;;;;;10.35;6.10;;;;;;;;;;5026977;28;20108;-68
2021/07/14 07:05:38;;;;;;;8.10;5.60;;;;;;;;;;5028722;28;20025;-68
2021/07/14 07:08:04;;;;;;;7.90;5.03;;;;;;;;;;5028392;28;20037;-67
2021/07/14 07:10:30;;;;;;;10.48;5.70;;;;;;;;;;5019242;28;20034;-68
2021/07/14 07:12:56;;;;;;;10.40;5.78;;;;;;;;;;5028674;28;20476;-67
2021/07/14 07:15:22;;;;;;;10.48;5.40;;;;;;;;;;5029508;28;20022;-68
2021/07/14 07:17:49;;;;;;;10.07;5.45;;;;;;;;;;5023672;28;20258;-68
2021/07/14 07:20:15;;;;;;;9.02;5.50;;;;;;;;;;5017909;28;20029;-68
2021/07/14 07:22:42;;;;;;;9.40;5.60;;;;;;;;;;5012775;28;20187;-67
2021/07/14 07:25:09;;;;;;;9.75;6.22;;;;;;;;;;5032249;28;20025;-68
2021/07/14 07:27:37;;;;;;;8.85;5.57;;;;;;;;;;5029334;28;20450;-67
2021/07/14 07:30:04;;;;;;;7.88;5.50;;;;;;;;;;5025989;28;20034;-67
2021/07/14 07:32:30;;;;;;;7.53;5.50;;;;;;;;;;5028333;28;20021;-67
2021/07/14 07:34:56;;;;;;;7.63;5.38;;;;;;;;;;5024702;28;20026;-67
2021/07/14 07:37:22;;;;;;;8.48;5.75;;;;;;;;;;5012430;28;20029;-68
2021/07/14 07:39:49;;;;;;;11.90;6.13;;;;;;;;;;5008700;28;20428;-68
2021/07/14 07:42:15;;;;;;;8.15;5.97;;;;;;;;;;5017385;28;20088;-68
2021/07/14 07:44:43;;;;;;;10.65;5.30;;;;;;;;;;5011088;28;20033;-68
2021/07/14 07:47:09;;;;;;;7.93;5.00;;;;;;;;;;5015968;28;20034;-68
2021/07/14 07:49:35;;;;;;;7.75;4.72;;;;;;;;;;5013311;28;20064;-68
2021/07/14 07:52:02;;;;;;;10.27;6.45;;;;;;;;;;5009020;28;20149;-67
2021/07/14 07:54:29;;;;;;;5.20;3.95;;;;;;;;;;5027012;28;20079;-67
2021/07/14 07:56:55;;;;;;;7.35;5.00;;;;;;;;;;5022032;28;20745;-67
2021/07/14 07:59:21;;;;;;;5.60;4.63;;;;;;;;;;5012193;28;20060;-68
2021/07/14 08:01:47;;;;;;;9.13;4.90;;;;;;;;;;5024647;28;20065;-68
2021/07/14 08:04:14;;;;;;;6.57;4.35;;;;;;;;;;5020269;28;20033;-69
2021/07/14 08:06:40;;;;;;;6.32;4.18;;;;;;;;;;5027018;28;20025;-69
2021/07/14 08:09:06;;;;;;;6.97;4.20;;;;;;;;;;5026500;28;20137;-68
2021/07/14 08:11:33;;;;;;;4.63;3.53;;;;;;;;;;5015243;28;20041;-68
2021/07/14 08:13:59;;;;;;;5.43;4.05;;;;;;;;;;5018506;28;20030;-67
2021/07/14 08:16:25;;;;;;;6.25;4.13;;;;;;;;;;5024193;28;20024;-69
2021/07/14 08:18:52;;;;;;;5.07;3.83;;;;;;;;;;5018761;28;20030;-68
2021/07/14 08:21:18;;;;;;;4.95;4.03;;;;;;;;;;5025806;28;20029;-68
2021/07/14 08:23:45;;;;;;;7.50;3.95;;;;;;;;;;5014287;28;20503;-69
2021/07/14 08:26:12;;;;;;;7.57;3.75;;;;;;;;;;5030540;28;20068;-68
2021/07/14 08:28:39;;;;;;;7.00;3.85;;;;;;;;;;5024563;28;20738;-69
2021/07/14 08:31:05;;;;;;;4.68;3.58;;;;;;;;;;5013603;28;20026;-68
2021/07/14 08:33:31;;;;;;;5.07;3.78;;;;;;;;;;5018303;28;20039;-68
2021/07/14 08:35:57;;;;;;;7.30;4.10;;;;;;;;;;5012988;28;20780;-67
2021/07/14 08:38:23;;;;;;;4.10;3.17;;;;;;;;;;5020921;28;20823;-68
2021/07/14 08:40:50;;;;;;;5.10;3.50;;;;;;;;;;5015043;28;20574;-67
2021/07/14 08:43:17;;;;;;;4.55;3.08;;;;;;;;;;5012689;28;20038;-67
2021/07/14 08:45:44;;;;;;;5.88;3.13;;;;;;;;;;5030049;28;20040;-68
2021/07/14 08:48:13;;;;;;;4.32;3.47;;;;;;;;;;5030090;28;20029;-67
2021/07/14 08:50:43;;;;;;;4.93;2.92;;;;;;;;;;5023557;28;20092;-69
2021/07/14 08:53:14;;;;;;;2.97;2.47;;;;;;;;;;5022059;28;20068;-69
2021/07/14 08:55:40;;;;;;;3.70;3.10;;;;;;;;;;5029264;28;20113;-68
2021/07/14 08:58:06;;;;;;;4.90;3.05;;;;;;;;;;5014423;28;20053;-67
2021/07/14 09:00:32;;;;;;;2.30;2.10;;;;;;;;;;5013852;28;20068;-68
2021/07/14 09:02:58;;;;;;;3.13;2.80;;;;;;;;;;5027465;28;20045;-67
2021/07/14 09:05:24;;;;;;;3.22;2.30;;;;;;;;;;5026374;28;20025;-67
2021/07/14 09:07:51;;;;;;;2.80;2.15;;;;;;;;;;5025375;28;20029;-68
2021/07/14 09:10:17;;;;;;;3.67;2.63;;;;;;;;;;5014443;28;20496;-69
2021/07/14 09:12:45;;;;;;;2.78;2.45;;;;;;;;;;5024196;28;20038;-67
2021/07/14 09:15:15;;;;;;;2.85;2.25;;;;;;;;;;5023225;28;20037;-67
2021/07/14 09:17:49;;;;;;;3.50;2.30;;;;;;;;;;5020546;28;20045;-68
2021/07/14 09:20:31;;;;;;;2.45;2.13;;;;;;;;;;5017352;28;20034;-67
2021/07/14 09:23:05;;;;;;;2.42;2.08;;;;;;;;;;5015825;28;20113;-67
2021/07/14 09:26:01;;;;;;;3.00;2.30;;;;;;;;;;5026247;28;20122;-67
2021/07/14 09:28:39;;;;;;;4.70;2.90;;;;;;;;;;5013388;28;20041;-68
2021/07/14 09:31:07;;;;;;;4.20;2.40;;;;;;;;;;5023885;28;20037;-68
2021/07/14 09:33:34;;;;;;;3.00;2.40;;;;;;;;;;5016213;28;20048;-68
2021/07/14 09:36:00;;;;;;;2.85;2.28;;;;;;;;;;5010130;28;20069;-67
2021/07/14 09:38:26;;;;;;;2.72;2.20;;;;;;;;;;5016843;28;20527;-68
2021/07/14 09:41:04;;;;;;;3.00;1.90;;;;;;;;;;5014740;28;20484;-68
2021/07/14 09:43:38;;;;;;;3.42;2.75;;;;;;;;;;5014079;28;20053;-67
2021/07/14 09:46:08;;;;;;;5.20;3.35;;;;;;;;;;5010015;28;20026;-68
2021/07/14 09:48:37;;;;;;;3.03;2.67;;;;;;;;;;5016964;28;20030;-67
2021/07/14 09:51:09;;;;;;;2.85;2.35;;;;;;;;;;5017634;28;20033;-67
2021/07/14 09:53:36;;;;;;;3.10;2.70;;;;;;;;;;5015936;28;20080;-67
2021/07/14 09:56:22;;;;;;;3.33;2.58;;;;;;;;;;5029859;28;20483;-67
2021/07/14 09:59:01;;;;;;;2.88;2.30;;;;;;;;;;5021044;28;20563;-66
2021/07/14 10:01:34;;;;;;;3.03;2.25;;;;;;;;;;5016525;28;20037;-68
2021/07/14 10:04:00;;;;;;;2.75;1.83;;;;;;;;;;5022192;28;20040;-67
2021/07/14 10:06:26;;;;;;;2.28;2.08;;;;;;;;;;5023142;28;20040;-68
2021/07/14 10:08:52;;;;;;;3.20;2.13;;;;;;;;;;5009990;28;20033;-68
2021/07/14 10:11:23;;;;;;;3.22;2.22;;;;;;;;;;5013230;28;20496;-67
2021/07/14 10:13:58;;;;;;;3.00;2.20;;;;;;;;;;5022979;28;20042;-69
2021/07/14 10:16:24;;;;;;;;;;;;;;;;;;5017422;28;20515;-67
2021/07/14 10:19:04;;;;;;;2.33;2.05;;;;;;;;;;5016997;28;19913;-68
2021/07/14 10:21:31;;;;;;;2.63;2.15;;;;;;;;;;5011549;28;20029;-67
2021/07/14 10:23:57;;;;;;;3.40;2.08;;;;;;;;;;5025333;28;20044;-67
2021/07/14 10:26:24;;;;;;;3.85;2.15;;;;;;;;;;5011577;28;20504;-70
2021/07/14 10:28:50;;;;;;;2.72;2.53;;;;;;;;;;5022398;28;20037;-67
2021/07/14 10:31:21;;;;;;;5.90;3.22;;;;;;;;;;5016996;28;20029;-67
2021/07/14 10:33:47;;;;;;;3.50;2.50;;;;;;;;;;5026035;28;20021;-67
2021/07/14 10:36:14;;;;;;;3.53;2.80;;;;;;;;;;5023263;28;20062;-68
2021/07/14 10:38:46;;;;;;;3.38;2.80;;;;;;;;;;5010087;28;20041;-68
2021/07/14 10:41:12;;;;;;;3.83;3.20;;;;;;;;;;5020511;28;20112;-67
2021/07/14 10:43:38;;;;;;;3.72;2.65;;;;;;;;;;5015654;28;20037;-66
2021/07/14 10:46:05;;;;;;;3.05;2.63;;;;;;;;;;5015988;28;20030;-68
2021/07/14 10:48:31;;;;;;;3.20;2.55;;;;;;;;;;5015676;28;20025;-67
2021/07/14 10:50:57;;;;;;;4.57;2.60;;;;;;;;;;5018860;28;20073;-67
2021/07/14 10:53:24;;;;;;;2.63;2.25;;;;;;;;;;5013239;28;20109;-68
2021/07/14 10:55:53;;;;;;;4.18;2.28;;;;;;;;;;5012113;28;20575;-67
2021/07/14 10:58:21;;;;;;;4.00;2.33;;;;;;;;;;5014857;28;20045;-67
2021/07/14 11:00:47;;;;;;;4.38;2.30;;;;;;;;;;5016009;28;20040;-66
2021/07/14 11:03:42;;;;;;;2.75;2.28;;;;;;;;;;5023470;28;20064;-67
2021/07/14 11:06:10;;;;;;;3.05;2.33;;;;;;;;;;5020254;28;20628;-67
2021/07/14 11:08:41;;;;;;;2.50;2.20;;;;;;;;;;5018318;28;20515;-69
2021/07/14 11:11:08;;;;;;;2.60;2.30;;;;;;;;;;5009653;28;20488;-66
2021/07/14 11:13:34;;;;;;;2.40;2.20;;;;;;;;;;5027969;28;20109;-68
2021/07/14 11:16:23;;;;;;;3.20;2.38;;;;;;;;;;5017348;28;20066;-67
2021/07/14 11:19:04;;;;;;;2.65;2.38;;;;;;;;;;5022235;28;20084;-68
2021/07/14 11:21:49;;;;;;;2.72;2.10;;;;;;;;;;5017644;28;20422;-67
2021/07/14 11:24:34;;;;;;;2.65;1.70;;;;;;;;;;5020656;28;20040;-67
2021/07/14 11:27:20;;;;;;;2.40;1.80;;;;;;;;;;5018159;28;20056;-67
2021/07/14 11:29:47;;;;;;;2.60;2.40;;;;;;;;;;5021836;28;20041;-67
2021/07/14 11:32:32;;;;;;;2.17;1.98;;;;;;;;;;5025758;28;20021;-68
2021/07/14 11:34:59;;;;;;;3.17;2.40;;;;;;;;;;5008130;28;20030;-68
2021/07/14 11:37:31;;;;;;;2.13;1.92;;;;;;;;;;5017991;28;20057;-67
2021/07/14 11:40:17;;;;;;;2.10;1.90;;;;;;;;;;5011533;28;20123;-68
2021/07/14 11:42:48;;;;;;;2.35;2.00;;;;;;;;;;5018227;28;20057;-67
2021/07/14 11:45:15;;;;;;;2.10;1.90;;;;;;;;;;5016989;28;20087;-67
2021/07/14 11:47:41;;;;;;;2.75;1.80;;;;;;;;;;5017633;28;20026;-67
2021/07/14 11:50:10;;;;;;;2.42;2.22;;;;;;;;;;5016164;28;20061;-68
2021/07/14 11:52:44;;;;;;;2.33;2.13;;;;;;;;;;5025153;28;20068;-68
2021/07/14 11:55:22;;;;;;;2.88;2.20;;;;;;;;;;5023875;28;20029;-67
2021/07/14 11:57:49;;;;;;;2.25;2.05;;;;;;;;;;5015493;28;20092;-69
2021/07/14 12:00:15;;;;;;;4.50;2.17;;;;;;;;;;5003060;28;20079;-68
2021/07/14 12:02:57;;;;;;;2.35;2.15;;;;;;;;;;5025689;28;20538;-69
2021/07/14 12:05:29;;;;;;;2.28;1.98;;;;;;;;;;5021957;28;20111;-69
2021/07/14 12:08:07;;;;;;;4.53;2.00;;;;;;;;;;5027672;28;20077;-67
2021/07/14 12:10:33;;;;;;;2.17;1.90;;;;;;;;;;5031197;28;20033;-66
2021/07/14 12:13:01;;;;;;;2.35;2.10;;;;;;;;;;5031927;28;20033;-67
2021/07/14 12:15:30;;;;;;;2.15;1.95;;;;;;;;;;5026375;28;20032;-67
2021/07/14 12:18:05;;;;;;;3.13;1.98;;;;;;;;;;5031706;28;20033;-67
2021/07/14 12:20:31;;;;;;;2.33;1.90;;;;;;;;;;5034992;28;20083;-66
2021/07/14 12:22:57;;;;;;;3.00;2.20;;;;;;;;;;5031841;28;20477;-67
2021/07/14 12:25:36;;;;;;;2.30;2.08;;;;;;;;;;5034143;28;20041;-66
2021/07/14 12:28:08;;;;;;;3.55;2.00;;;;;;;;;;5008104;28;20100;-66
2021/07/14 12:30:36;;;;;;;2.40;2.20;;;;;;;;;;5030458;28;20108;-66
2021/07/14 12:33:04;;;;;;;2.35;2.15;;;;;;;;;;5031546;28;20071;-68
2021/07/14 12:35:34;;;;;;;2.53;2.20;;;;;;;;;;5031989;28;20032;-65
2021/07/14 12:38:01;;;;;;;4.45;2.03;;;;;;;;;;5020903;28;20499;-68
2021/07/14 12:40:28;;;;;;;2.65;2.03;;;;;;;;;;5028670;28;20048;-67
2021/07/14 12:42:56;;;;;;;3.42;2.50;;;;;;;;;;5031230;28;20034;-65
2021/07/14 12:45:23;;;;;;;2.10;1.90;;;;;;;;;;5013271;28;20029;-68
2021/07/14 12:47:49;;;;;;;2.47;2.10;;;;;;;;;;5027787;28;20113;-66
2021/07/14 12:50:25;;;;;;;3.25;2.30;;;;;;;;;;5012188;28;20100;-68
2021/07/14 12:52:56;;;;;;;2.88;2.10;;;;;;;;;;5014475;28;20107;-67
2021/07/14 12:55:23;;;;;;;2.85;2.28;;;;;;;;;;5013155;28;20056;-68
2021/07/14 12:57:50;;;;;;;3.08;2.20;;;;;;;;;;5025398;28;20030;-67
2021/07/14 13:00:17;;;;;;;2.20;1.92;;;;;;;;;;5031280;28;20037;-67
2021/07/14 13:02:47;;;;;;;2.40;2.20;;;;;;;;;;5031505;28;20029;-66
2021/07/14 13:05:18;;;;;;;2.63;1.85;;;;;;;;;;5031129;28;20087;-69
2021/07/14 13:07:51;;;;;;;2.63;2.20;;;;;;;;;;5031583;28;20029;-69
2021/07/14 13:10:18;;;;;;;4.72;1.88;;;;;;;;;;5032330;28;20033;-70
2021/07/14 13:12:47;;;;;;;2.92;2.00;;;;;;;;;;5031414;28;20510;-67
2021/07/14 13:15:17;;;;;;;2.92;2.08;;;;;;;;;;5030706;28;20021;-70
2021/07/14 13:17:43;;;;;;;2.50;2.20;;;;;;;;;;5030503;28;20637;-68
2021/07/14 13:20:11;;;;;;;4.13;2.20;;;;;;;;;;5026009;28;20043;-69
2021/07/14 13:22:38;;;;;;;2.25;2.03;;;;;;;;;;5033372;28;20045;-67
2021/07/14 13:25:06;;;;;;;2.42;2.10;;;;;;;;;;5023237;28;20057;-69
2021/07/14 13:27:37;;;;;;;2.85;2.17;;;;;;;;;;5044418;28;20025;-70
2021/07/14 13:30:22;;;;;;;3.17;2.30;;;;;;;;;;5020336;28;20561;-70
2021/07/14 13:33:17;;;;;;;2.80;2.30;;;;;;;;;;5012677;28;20510;-69
2021/07/14 13:35:45;;;;;;;2.42;2.20;;;;;;;;;;4999658;28;20046;-69
2021/07/14 13:38:31;;;;;;;2.22;2.03;;;;;;;;;;5012909;28;20042;-69
2021/07/14 13:41:02;;;;;;;2.55;1.90;;;;;;;;;;5021815;28;20033;-69
2021/07/14 13:43:50;;;;;;;2.85;2.03;;;;;;;;;;5021840;28;20066;-70
2021/07/14 13:46:23;;;;;;;2.95;2.20;;;;;;;;;;5014834;28;20117;-70
2021/07/14 13:48:54;;;;;;;1.80;1.70;;;;;;;;;;5020803;28;20110;-70
2021/07/14 13:51:30;;;;;;;2.40;2.20;;;;;;;;;;5026143;28;20076;-70
2021/07/14 13:53:56;;;;;;;2.58;2.20;;;;;;;;;;5018255;28;20069;-71
2021/07/14 13:56:29;;;;;;;2.72;1.98;;;;;;;;;;5019536;28;20399;-70
2021/07/14 13:58:55;;;;;;;2.57;2.20;;;;;;;;;;5027829;28;20377;-69
2021/07/14 14:01:24;;;;;;;3.30;2.20;;;;;;;;;;5014910;28;20484;-69
2021/07/14 14:03:57;;;;;;;2.75;2.30;;;;;;;;;;5016269;28;20500;-70
2021/07/14 14:06:23;;;;;;;2.38;1.90;;;;;;;;;;5019998;28;20471;-69
2021/07/14 14:08:55;;;;;;;3.40;2.00;;;;;;;;;;5021658;28;21285;-71
2021/07/14 14:11:26;;;;;;;2.13;1.85;;;;;;;;;;5012165;28;20040;-70
2021/07/14 14:13:52;;;;;;;2.92;1.95;;;;;;;;;;5009500;28;20029;-70
2021/07/14 14:16:18;;;;;;;3.30;2.20;;;;;;;;;;5013155;28;20025;-70
2021/07/14 14:18:45;;;;;;;2.20;1.90;;;;;;;;;;5019846;28;20044;-70
2021/07/14 14:21:11;;;;;;;2.33;2.10;;;;;;;;;;5003165;28;20036;-70
2021/07/14 14:23:38;;;;;;;3.47;2.30;;;;;;;;;;5028361;28;20045;-70
2021/07/14 14:26:04;;;;;;;3.13;2.17;;;;;;;;;;5028575;28;20038;-69
2021/07/14 14:28:31;;;;;;;2.20;1.90;;;;;;;;;;5026668;28;20029;-68
2021/07/14 14:30:59;;;;;;;2.78;2.38;;;;;;;;;;5025207;28;20030;-70
2021/07/14 14:33:25;;;;;;;3.90;2.20;;;;;;;;;;5028586;28;20032;-69
2021/07/14 14:35:51;;;;;;;3.85;2.10;;;;;;;;;;5023352;28;20026;-70
2021/07/14 14:38:19;;;;;;;5.15;2.13;;;;;;;;;;5022674;28;20500;-70
2021/07/14 14:40:49;;;;;;;2.17;1.90;;;;;;;;;;5015349;28;20037;-69
2021/07/14 14:43:15;;;;;;;2.42;2.22;;;;;;;;;;5023699;28;20601;-69
2021/07/14 14:45:44;;;;;;;2.80;2.30;;;;;;;;;;5023323;28;20079;-69
2021/07/14 14:48:10;;;;;;;3.03;2.13;;;;;;;;;;5026618;28;20029;-70
2021/07/14 14:50:36;;;;;;;2.22;2.03;;;;;;;;;;5012802;28;20037;-71
2021/07/14 14:53:03;;;;;;;3.88;2.17;;;;;;;;;;5015037;28;20028;-69
2021/07/14 14:55:29;;;;;;;4.00;2.00;;;;;;;;;;5020146;28;20059;-69
2021/07/14 14:57:55;;;;;;;2.33;2.08;;;;;;;;;;5002793;28;20045;-70
2021/07/14 15:00:21;;;;;;;2.67;2.20;;;;;;;;;;5023164;28;20807;-69